sensor_id;sensor_type;location;lat;lon;timestamp;pressure;altitude;pressure_sealevel;temperature
74915;BMP280;63475;45.140;-75.616;2023-03-01T00:00:39;99956.81;;;0.64
74915;BMP280;63475;45.140;-75.616;2023-03-01T00:01:40;99953.03;;;0.62
74915;BMP280;63475;45.140;-75.616;2023-03-01T00:02:41;99965.44;;;0.68
74915;BMP280;63475;45.140;-75.616;2023-03-01T00:03:43;99965.03;;;0.66
74915;BMP280;63475;45.140;-75.616;2023-03-01T00:04:44;99969.91;;;0.68
74915;BMP280;63475;45.140;-75.616;2023-03-01T00:05:46;99945.91;;;0.59
74915;BMP280;63475;45.140;-75.616;2023-03-01T00:06:47;99966.19;;;0.69
74915;BMP280;63475;45.140;-75.616;2023-03-01T00:07:51;99968.72;;;0.65
74915;BMP280;63475;45.140;-75.616;2023-03-01T00:08:53;99968.81;;;0.69
74915;BMP280;63475;45.140;-75.616;2023-03-01T00:09:54;99980.66;;;0.66
74915;BMP280;63475;45.140;-75.616;2023-03-01T00:12:09;99981.84;;;0.69
74915;BMP280;63475;45.140;-75.616;2023-03-01T00:13:10;99962.94;;;0.56
74915;BMP280;63475;45.140;-75.616;2023-03-01T00:14:11;99987.81;;;0.69
74915;BMP280;63475;45.140;-75.616;2023-03-01T00:15:12;99982.94;;;0.68
74915;BMP280;63475;45.140;-75.616;2023-03-01T00:16:16;99990.47;;;0.73
74915;BMP280;63475;45.140;-75.616;2023-03-01T00:17:18;99998.47;;;0.84
74915;BMP280;63475;45.140;-75.616;2023-03-01T00:18:18;99980.81;;;0.73
74915;BMP280;63475;45.140;-75.616;2023-03-01T00:19:20;99991.00;;;0.82
74915;BMP280;63475;45.140;-75.616;2023-03-01T00:20:22;100000.28;;;0.80
74915;BMP280;63475;45.140;-75.616;2023-03-01T00:21:24;99975.56;;;0.54
74915;BMP280;63475;45.140;-75.616;2023-03-01T00:22:26;100003.16;;;0.75
74915;BMP280;63475;45.140;-75.616;2023-03-01T00:23:29;100000.16;;;0.72
74915;BMP280;63475;45.140;-75.616;2023-03-01T00:24:30;100002.75;;;0.72
74915;BMP280;63475;45.140;-75.616;2023-03-01T00:25:31;100007.97;;;0.72
74915;BMP280;63475;45.140;-75.616;2023-03-01T00:26:32;99984.13;;;0.55
74915;BMP280;63475;45.140;-75.616;2023-03-01T00:27:32;100006.13;;;0.73
74915;BMP280;63475;45.140;-75.616;2023-03-01T00:28:33;100003.03;;;0.67
74915;BMP280;63475;45.140;-75.616;2023-03-01T00:29:34;100010.56;;;0.72
74915;BMP280;63475;45.140;-75.616;2023-03-01T00:30:35;100015.78;;;0.72
74915;BMP280;63475;45.140;-75.616;2023-03-01T00:31:36;100015.78;;;0.72
74915;BMP280;63475;45.140;-75.616;2023-03-01T00:32:37;100014.69;;;0.73
74915;BMP280;63475;45.140;-75.616;2023-03-01T00:33:39;100018.03;;;0.74
74915;BMP280;63475;45.140;-75.616;2023-03-01T00:34:40;100022.91;;;0.76
74915;BMP280;63475;45.140;-75.616;2023-03-01T00:35:40;100021.06;;;0.76
74915;BMP280;63475;45.140;-75.616;2023-03-01T00:36:41;100026.75;;;0.82
74915;BMP280;63475;45.140;-75.616;2023-03-01T00:37:42;100026.53;;;0.90
74915;BMP280;63475;45.140;-75.616;2023-03-01T00:38:44;100027.56;;;0.86
74915;BMP280;63475;45.140;-75.616;2023-03-01T00:39:46;100034.56;;;0.82
74915;BMP280;63475;45.140;-75.616;2023-03-01T00:40:46;100039.38;;;0.80
74915;BMP280;63475;45.140;-75.616;2023-03-01T00:41:47;100039.72;;;0.78
74915;BMP280;63475;45.140;-75.616;2023-03-01T00:42:48;100029.56;;;0.73
74915;BMP280;63475;45.140;-75.616;2023-03-01T00:43:50;100006.31;;;0.64
74915;BMP280;63475;45.140;-75.616;2023-03-01T00:44:51;100037.50;;;0.80
74915;BMP280;63475;45.140;-75.616;2023-03-01T00:45:52;100038.25;;;0.81
74915;BMP280;63475;45.140;-75.616;2023-03-01T00:46:52;100031.75;;;0.71
74915;BMP280;63475;45.140;-75.616;2023-03-01T00:47:54;100041.56;;;0.78
74915;BMP280;63475;45.140;-75.616;2023-03-01T00:48:55;100036.28;;;0.74
74915;BMP280;63475;45.140;-75.616;2023-03-01T00:49:56;100046.03;;;0.77
74915;BMP280;63475;45.140;-75.616;2023-03-01T00:50:56;100040.81;;;0.77
74915;BMP280;63475;45.140;-75.616;2023-03-01T00:51:57;100046.03;;;0.77
74915;BMP280;63475;45.140;-75.616;2023-03-01T00:52:58;100050.91;;;0.79
74915;BMP280;63475;45.140;-75.616;2023-03-01T00:54:02;100057.63;;;0.80
74915;BMP280;63475;45.140;-75.616;2023-03-01T00:55:04;100062.09;;;0.79
74915;BMP280;63475;45.140;-75.616;2023-03-01T00:56:06;100065.03;;;0.78
74915;BMP280;63475;45.140;-75.616;2023-03-01T00:57:07;100072.44;;;0.76
74915;BMP280;63475;45.140;-75.616;2023-03-01T00:58:08;100072.44;;;0.76
74915;BMP280;63475;45.140;-75.616;2023-03-01T00:59:09;100067.91;;;0.72
74915;BMP280;63475;45.140;-75.616;2023-03-01T01:00:11;100073.19;;;0.76
74915;BMP280;63475;45.140;-75.616;2023-03-01T01:01:25;100088.91;;;0.80
74915;BMP280;63475;45.140;-75.616;2023-03-01T01:02:27;100095.56;;;0.77
74915;BMP280;63475;45.140;-75.616;2023-03-01T01:03:28;100102.00;;;0.83
74915;BMP280;63475;45.140;-75.616;2023-03-01T01:04:29;100092.72;;;0.86
74915;BMP280;63475;45.140;-75.616;2023-03-01T01:05:30;100107.69;;;0.89
74915;BMP280;63475;45.140;-75.616;2023-03-01T01:06:34;100104.84;;;0.94
74915;BMP280;63475;45.140;-75.616;2023-03-01T01:07:36;100109.03;;;0.98
74915;BMP280;63475;45.140;-75.616;2023-03-01T01:08:37;100093.75;;;0.97
74915;BMP280;63475;45.140;-75.616;2023-03-01T01:09:38;100085.31;;;0.88
74915;BMP280;63475;45.140;-75.616;2023-03-01T01:10:39;100114.34;;;1.02
74915;BMP280;63475;45.140;-75.616;2023-03-01T01:11:40;100120.44;;;1.10
74915;BMP280;63475;45.140;-75.616;2023-03-01T01:12:41;100110.66;;;0.87
74915;BMP280;63475;45.140;-75.616;2023-03-01T01:13:43;100124.44;;;0.88
74915;BMP280;63475;45.140;-75.616;2023-03-01T01:14:44;100118.09;;;0.69
74915;BMP280;63475;45.140;-75.616;2023-03-01T01:15:45;100123.41;;;0.73
74915;BMP280;63475;45.140;-75.616;2023-03-01T01:16:46;100144.19;;;0.89
74915;BMP280;63475;45.140;-75.616;2023-03-01T01:17:47;100151.03;;;0.93
74915;BMP280;63475;45.140;-75.616;2023-03-01T01:18:51;100155.38;;;0.89
74915;BMP280;63475;45.140;-75.616;2023-03-01T01:19:52;100161.44;;;0.93
74915;BMP280;63475;45.140;-75.616;2023-03-01T01:20:53;100163.72;;;0.95
74915;BMP280;63475;45.140;-75.616;2023-03-01T01:21:54;100166.13;;;0.88
74915;BMP280;63475;45.140;-75.616;2023-03-01T01:22:55;100165.13;;;0.92
74915;BMP280;63475;45.140;-75.616;2023-03-01T01:23:56;100166.22;;;0.91
74915;BMP280;63475;45.140;-75.616;2023-03-01T01:24:57;100164.84;;;0.78
74915;BMP280;63475;45.140;-75.616;2023-03-01T01:26:05;100181.38;;;0.86
74915;BMP280;63475;45.140;-75.616;2023-03-01T01:27:06;100171.81;;;0.74
74915;BMP280;63475;45.140;-75.616;2023-03-01T01:28:07;100189.44;;;0.81
74915;BMP280;63475;45.140;-75.616;2023-03-01T01:29:09;100189.88;;;0.83
74915;BMP280;63475;45.140;-75.616;2023-03-01T01:30:11;100192.88;;;0.85
74915;BMP280;63475;45.140;-75.616;2023-03-01T01:31:13;100198.09;;;0.85
74915;BMP280;63475;45.140;-75.616;2023-03-01T01:32:14;100178.63;;;0.63
74915;BMP280;63475;45.140;-75.616;2023-03-01T01:33:15;100209.91;;;0.79
74915;BMP280;63475;45.140;-75.616;2023-03-01T01:34:19;100208.06;;;0.79
74915;BMP280;63475;45.140;-75.616;2023-03-01T01:35:20;100205.78;;;0.78
74915;BMP280;63475;45.140;-75.616;2023-03-01T01:36:21;100212.69;;;0.70
74915;BMP280;63475;45.140;-75.616;2023-03-01T01:37:22;100212.69;;;0.70
74915;BMP280;63475;45.140;-75.616;2023-03-01T01:38:23;100200.16;;;0.60
74915;BMP280;63475;45.140;-75.616;2023-03-01T01:39:24;100220.41;;;0.66
74915;BMP280;63475;45.140;-75.616;2023-03-01T01:40:25;100219.66;;;0.66
74915;BMP280;63475;45.140;-75.616;2023-03-01T01:41:28;100210.47;;;0.56
74915;BMP280;63475;45.140;-75.616;2023-03-01T01:42:29;100230.44;;;0.64
74915;BMP280;63475;45.140;-75.616;2023-03-01T01:43:37;100234.13;;;0.63
74915;BMP280;63475;45.140;-75.616;2023-03-01T01:44:39;100234.97;;;0.67
74915;BMP280;63475;45.140;-75.616;2023-03-01T01:45:41;100229.31;;;0.65
74915;BMP280;63475;45.140;-75.616;2023-03-01T01:46:49;100235.56;;;0.61
74915;BMP280;63475;45.140;-75.616;2023-03-01T01:47:52;100232.75;;;0.54
74915;BMP280;63475;45.140;-75.616;2023-03-01T01:50:18;100242.84;;;0.55
74915;BMP280;63475;45.140;-75.616;2023-03-01T01:51:27;100242.31;;;0.50
74915;BMP280;63475;45.140;-75.616;2023-03-01T01:52:34;100249.13;;;0.54
74915;BMP280;63475;45.140;-75.616;2023-03-01T01:53:37;100229.63;;;0.32
74915;BMP280;63475;45.140;-75.616;2023-03-01T01:54:54;100250.91;;;0.50
74915;BMP280;63475;45.140;-75.616;2023-03-01T01:56:00;100258.03;;;0.53
74915;BMP280;63475;45.140;-75.616;2023-03-01T01:57:05;100233.09;;;0.36
74915;BMP280;63475;45.140;-75.616;2023-03-01T01:58:09;100258.72;;;0.50
74915;BMP280;63475;45.140;-75.616;2023-03-01T01:59:11;100261.06;;;0.55
74915;BMP280;63475;45.140;-75.616;2023-03-01T02:00:19;100262.41;;;0.49
74915;BMP280;63475;45.140;-75.616;2023-03-01T02:01:20;100273.25;;;0.51
74915;BMP280;63475;45.140;-75.616;2023-03-01T02:02:21;100259.19;;;0.40
74915;BMP280;63475;45.140;-75.616;2023-03-01T02:03:29;100279.38;;;0.43
74915;BMP280;63475;45.140;-75.616;2023-03-01T02:04:33;100256.34;;;0.29
74915;BMP280;63475;45.140;-75.616;2023-03-01T02:07:14;100279.22;;;0.36
74915;BMP280;63475;45.140;-75.616;2023-03-01T02:08:18;100283.06;;;0.42
74915;BMP280;63475;45.140;-75.616;2023-03-01T02:09:20;100282.22;;;0.38
74915;BMP280;63475;45.140;-75.616;2023-03-01T02:10:24;100287.03;;;0.36
74915;BMP280;63475;45.140;-75.616;2023-03-01T02:11:25;100290.31;;;0.33
74915;BMP280;63475;45.140;-75.616;2023-03-01T02:12:28;100294.31;;;0.30
74915;BMP280;63475;45.140;-75.616;2023-03-01T02:13:30;100273.75;;;0.13
74915;BMP280;63475;45.140;-75.616;2023-03-01T02:14:37;100294.56;;;0.25
74915;BMP280;63475;45.140;-75.616;2023-03-01T02:15:39;100299.00;;;0.25
74915;BMP280;63475;45.140;-75.616;2023-03-01T02:16:41;100303.00;;;0.22
74915;BMP280;63475;45.140;-75.616;2023-03-01T02:17:45;100303.34;;;0.21
74915;BMP280;63475;45.140;-75.616;2023-03-01T02:18:46;100276.81;;;0.03
74915;BMP280;63475;45.140;-75.616;2023-03-01T02:22:38;100308.69;;;0.24
74915;BMP280;63475;45.140;-75.616;2023-03-01T02:23:40;100298.59;;;0.11
74915;BMP280;63475;45.140;-75.616;2023-03-01T02:26:21;100318.44;;;0.15
74915;BMP280;63475;45.140;-75.616;2023-03-01T02:27:31;100314.31;;;0.14
74915;BMP280;63475;45.140;-75.616;2023-03-01T02:28:36;100318.44;;;0.15
74915;BMP280;63475;45.140;-75.616;2023-03-01T02:29:38;100319.44;;;0.11
74915;BMP280;63475;45.140;-75.616;2023-03-01T02:30:40;100318.78;;;0.14
74915;BMP280;63475;45.140;-75.616;2023-03-01T02:32:02;100320.28;;;0.15
74915;BMP280;63475;45.140;-75.616;2023-03-01T02:33:04;100295.38;;;0.01
74915;BMP280;63475;45.140;-75.616;2023-03-01T02:34:06;100314.97;;;0.11
74915;BMP280;63475;45.140;-75.616;2023-03-01T02:35:14;100323.97;;;0.14
74915;BMP280;63475;45.140;-75.616;2023-03-01T02:36:22;100323.22;;;0.13
74915;BMP280;63475;45.140;-75.616;2023-03-01T02:37:26;100325.41;;;0.11
74915;BMP280;63475;45.140;-75.616;2023-03-01T02:38:28;100294.31;;;-0.10
74915;BMP280;63475;45.140;-75.616;2023-03-01T02:39:54;100300.16;;;-0.13
74915;BMP280;63475;45.140;-75.616;2023-03-01T02:40:56;100337.22;;;0.08
74915;BMP280;63475;45.140;-75.616;2023-03-01T02:41:58;100321.72;;;-0.00
74915;BMP280;63475;45.140;-75.616;2023-03-01T02:43:00;100333.09;;;0.07
74915;BMP280;63475;45.140;-75.616;2023-03-01T02:44:03;100336.47;;;0.08
74915;BMP280;63475;45.140;-75.616;2023-03-01T02:45:05;100326.72;;;0.05
74915;BMP280;63475;45.140;-75.616;2023-03-01T02:46:13;100311.56;;;-0.05
74915;BMP280;63475;45.140;-75.616;2023-03-01T02:47:14;100336.03;;;0.06
74915;BMP280;63475;45.140;-75.616;2023-03-01T02:48:15;100327.28;;;-0.02
74915;BMP280;63475;45.140;-75.616;2023-03-01T02:49:22;100337.88;;;0.05
74915;BMP280;63475;45.140;-75.616;2023-03-01T02:55:10;100325.97;;;0.04
74915;BMP280;63475;45.140;-75.616;2023-03-01T02:56:11;100312.41;;;-0.01
74915;BMP280;63475;45.140;-75.616;2023-03-01T02:57:13;100290.41;;;-0.16
74915;BMP280;63475;45.140;-75.616;2023-03-01T02:58:14;100318.91;;;0.05
74915;BMP280;63475;45.140;-75.616;2023-03-01T02:59:19;100321.84;;;0.03
74915;BMP280;63475;45.140;-75.616;2023-03-01T03:00:29;100322.16;;;0.02
74915;BMP280;63475;45.140;-75.616;2023-03-01T03:01:33;100300.16;;;-0.13
74915;BMP280;63475;45.140;-75.616;2023-03-01T03:02:37;100300.06;;;-0.16
74915;BMP280;63475;45.140;-75.616;2023-03-01T03:03:38;100341.47;;;0.01
74915;BMP280;63475;45.140;-75.616;2023-03-01T03:04:39;100344.41;;;-0.01
74915;BMP280;63475;45.140;-75.616;2023-03-01T03:05:40;100347.66;;;-0.04
74915;BMP280;63475;45.140;-75.616;2023-03-01T03:06:42;100346.81;;;-0.08
74915;BMP280;63475;45.140;-75.616;2023-03-01T03:07:45;100350.16;;;-0.07
74915;BMP280;63475;45.140;-75.616;2023-03-01T03:08:46;100359.06;;;-0.08
74915;BMP280;63475;45.140;-75.616;2023-03-01T03:09:47;100355.69;;;-0.09
74915;BMP280;63475;45.140;-75.616;2023-03-01T03:10:49;100369.03;;;-0.10
74915;BMP280;63475;45.140;-75.616;2023-03-01T03:11:50;100353.63;;;-0.15
74915;BMP280;63475;45.140;-75.616;2023-03-01T03:12:55;100358.94;;;-0.12
74915;BMP280;63475;45.140;-75.616;2023-03-01T03:13:57;100333.41;;;-0.34
74915;BMP280;63475;45.140;-75.616;2023-03-01T03:14:58;100358.22;;;-0.25
74915;BMP280;63475;45.140;-75.616;2023-03-01T03:15:59;100370.56;;;-0.09
74915;BMP280;63475;45.140;-75.616;2023-03-01T03:17:00;100367.50;;;-0.11
74915;BMP280;63475;45.140;-75.616;2023-03-01T03:18:01;100373.94;;;-0.09
74915;BMP280;63475;45.140;-75.616;2023-03-01T03:19:02;100374.56;;;-0.12
74915;BMP280;63475;45.140;-75.616;2023-03-01T03:20:06;100374.56;;;-0.12
74915;BMP280;63475;45.140;-75.616;2023-03-01T03:21:13;100376.09;;;-0.11
74915;BMP280;63475;45.140;-75.616;2023-03-01T03:22:14;100377.91;;;-0.11
74915;BMP280;63475;45.140;-75.616;2023-03-01T03:23:15;100354.00;;;-0.29
74915;BMP280;63475;45.140;-75.616;2023-03-01T03:24:16;100380.50;;;-0.11
74915;BMP280;63475;45.140;-75.616;2023-03-01T03:25:19;100378.69;;;-0.11
74915;BMP280;63475;45.140;-75.616;2023-03-01T03:26:21;100383.13;;;-0.11
74915;BMP280;63475;45.140;-75.616;2023-03-01T03:27:21;100382.81;;;-0.10
74915;BMP280;63475;45.140;-75.616;2023-03-01T03:28:22;100380.97;;;-0.09
74915;BMP280;63475;45.140;-75.616;2023-03-01T03:29:23;100388.78;;;-0.09
74915;BMP280;63475;45.140;-75.616;2023-03-01T03:30:29;100371.44;;;-0.17
74915;BMP280;63475;45.140;-75.616;2023-03-01T03:31:30;100384.66;;;-0.10
74915;BMP280;63475;45.140;-75.616;2023-03-01T03:32:31;100378.69;;;-0.11
74915;BMP280;63475;45.140;-75.616;2023-03-01T03:33:32;100381.31;;;-0.11
74915;BMP280;63475;45.140;-75.616;2023-03-01T03:34:33;100388.03;;;-0.10
74915;BMP280;63475;45.140;-75.616;2023-03-01T03:35:40;100388.03;;;-0.10
74915;BMP280;63475;45.140;-75.616;2023-03-01T03:36:41;100396.91;;;-0.11
74915;BMP280;63475;45.140;-75.616;2023-03-01T03:37:42;100379.56;;;-0.19
74915;BMP280;63475;45.140;-75.616;2023-03-01T03:39:01;100379.78;;;-0.24
74915;BMP280;63475;45.140;-75.616;2023-03-01T03:40:03;100393.44;;;-0.15
74915;BMP280;63475;45.140;-75.616;2023-03-01T03:41:05;100398.31;;;-0.13
74915;BMP280;63475;45.140;-75.616;2023-03-01T03:42:07;100385.09;;;-0.20
74915;BMP280;63475;45.140;-75.616;2023-03-01T03:43:16;100394.94;;;-0.14
74915;BMP280;63475;45.140;-75.616;2023-03-01T03:44:17;100395.25;;;-0.15
74915;BMP280;63475;45.140;-75.616;2023-03-01T03:45:18;100386.50;;;-0.23
74915;BMP280;63475;45.140;-75.616;2023-03-01T03:46:19;100395.63;;;-0.17
74915;BMP280;63475;45.140;-75.616;2023-03-01T03:47:20;100405.28;;;-0.17
74915;BMP280;63475;45.140;-75.616;2023-03-01T03:48:21;100382.94;;;-0.31
74915;BMP280;63475;45.140;-75.616;2023-03-01T03:49:22;100403.31;;;-0.20
74915;BMP280;63475;45.140;-75.616;2023-03-01T03:50:23;100395.41;;;-0.24
74915;BMP280;63475;45.140;-75.616;2023-03-01T03:51:24;100403.66;;;-0.22
74915;BMP280;63475;45.140;-75.616;2023-03-01T03:52:25;100409.19;;;-0.24
74915;BMP280;63475;45.140;-75.616;2023-03-01T03:53:28;100415.13;;;-0.23
74915;BMP280;63475;45.140;-75.616;2023-03-01T03:54:29;100375.63;;;-0.49
74915;BMP280;63475;45.140;-75.616;2023-03-01T03:55:30;100411.03;;;-0.24
74915;BMP280;63475;45.140;-75.616;2023-03-01T03:56:34;100416.56;;;-0.26
74915;BMP280;63475;45.140;-75.616;2023-03-01T03:57:39;100368.28;;;-0.60
74915;BMP280;63475;45.140;-75.616;2023-03-01T03:58:40;100428.03;;;-0.27
74915;BMP280;63475;45.140;-75.616;2023-03-01T03:59:41;100421.75;;;-0.26
74915;BMP280;63475;45.140;-75.616;2023-03-01T04:00:44;100423.59;;;-0.26
74915;BMP280;63475;45.140;-75.616;2023-03-01T04:01:45;100430.66;;;-0.27
74915;BMP280;63475;45.140;-75.616;2023-03-01T04:02:47;100420.25;;;-0.27
74915;BMP280;63475;45.140;-75.616;2023-03-01T04:03:48;100422.09;;;-0.27
74915;BMP280;63475;45.140;-75.616;2023-03-01T04:04:49;100430.66;;;-0.27
74915;BMP280;63475;45.140;-75.616;2023-03-01T04:05:51;100429.88;;;-0.27
74915;BMP280;63475;45.140;-75.616;2023-03-01T04:06:53;100431.41;;;-0.26
74915;BMP280;63475;45.140;-75.616;2023-03-01T04:07:53;100423.16;;;-0.28
74915;BMP280;63475;45.140;-75.616;2023-03-01T04:09:01;100420.34;;;-0.35
74915;BMP280;63475;45.140;-75.616;2023-03-01T04:10:07;100424.25;;;-0.29
74915;BMP280;63475;45.140;-75.616;2023-03-01T04:11:09;100427.19;;;-0.31
74915;BMP280;63475;45.140;-75.616;2023-03-01T04:12:26;100396.88;;;-0.47
74915;BMP280;63475;45.140;-75.616;2023-03-01T04:13:27;100399.06;;;-0.49
74915;BMP280;63475;45.140;-75.616;2023-03-01T04:14:28;100418.50;;;-0.35
74915;BMP280;63475;45.140;-75.616;2023-03-01T04:15:30;100436.50;;;-0.30
74915;BMP280;63475;45.140;-75.616;2023-03-01T04:16:32;100428.69;;;-0.30
74915;BMP280;63475;45.140;-75.616;2023-03-01T04:17:33;100434.66;;;-0.29
74915;BMP280;63475;45.140;-75.616;2023-03-01T04:18:34;100408.53;;;-0.45
74915;BMP280;63475;45.140;-75.616;2023-03-01T04:19:35;100431.28;;;-0.30
74915;BMP280;63475;45.140;-75.616;2023-03-01T04:20:36;100422.50;;;-0.37
74915;BMP280;63475;45.140;-75.616;2023-03-01T04:21:37;100379.97;;;-0.66
74915;BMP280;63475;45.140;-75.616;2023-03-01T04:22:39;100424.69;;;-0.39
74915;BMP280;63475;45.140;-75.616;2023-03-01T04:23:41;100433.78;;;-0.33
74915;BMP280;63475;45.140;-75.616;2023-03-01T04:24:41;100403.63;;;-0.46
74915;BMP280;63475;45.140;-75.616;2023-03-01T04:25:47;100401.53;;;-0.53
74915;BMP280;63475;45.140;-75.616;2023-03-01T04:26:55;100411.56;;;-0.43
74915;BMP280;63475;45.140;-75.616;2023-03-01T04:27:56;100425.97;;;-0.33
74915;BMP280;63475;45.140;-75.616;2023-03-01T04:29:03;100429.66;;;-0.34
74915;BMP280;63475;45.140;-75.616;2023-03-01T04:30:05;100405.34;;;-0.50
74915;BMP280;63475;45.140;-75.616;2023-03-01T04:31:12;100431.19;;;-0.33
74915;BMP280;63475;45.140;-75.616;2023-03-01T04:32:17;100429.22;;;-0.36
74915;BMP280;63475;45.140;-75.616;2023-03-01T04:33:19;100426.41;;;-0.43
74915;BMP280;63475;45.140;-75.616;2023-03-01T04:34:20;100438.13;;;-0.37
74915;BMP280;63475;45.140;-75.616;2023-03-01T04:35:21;100412.28;;;-0.55
74915;BMP280;63475;45.140;-75.616;2023-03-01T04:36:25;100438.44;;;-0.39
74915;BMP280;63475;45.140;-75.616;2023-03-01T04:37:26;100435.84;;;-0.39
74915;BMP280;63475;45.140;-75.616;2023-03-01T04:38:27;100423.88;;;-0.52
74915;BMP280;63475;45.140;-75.616;2023-03-01T04:39:28;100436.50;;;-0.42
74915;BMP280;63475;45.140;-75.616;2023-03-01T04:40:29;100442.44;;;-0.41
74915;BMP280;63475;45.140;-75.616;2023-03-01T04:41:30;100438.34;;;-0.42
74915;BMP280;63475;45.140;-75.616;2023-03-01T04:42:31;100447.22;;;-0.43
74915;BMP280;63475;45.140;-75.616;2023-03-01T04:43:32;100439.84;;;-0.41
74915;BMP280;63475;45.140;-75.616;2023-03-01T04:44:34;100442.44;;;-0.41
74915;BMP280;63475;45.140;-75.616;2023-03-01T04:45:35;100433.63;;;-0.49
74915;BMP280;63475;45.140;-75.616;2023-03-01T04:46:36;100420.28;;;-0.60
74915;BMP280;63475;45.140;-75.616;2023-03-01T04:47:37;100450.59;;;-0.43
74915;BMP280;63475;45.140;-75.616;2023-03-01T04:48:40;100446.47;;;-0.44
74915;BMP280;63475;45.140;-75.616;2023-03-01T04:49:41;100449.06;;;-0.44
74915;BMP280;63475;45.140;-75.616;2023-03-01T04:50:42;100450.44;;;-0.46
74915;BMP280;63475;45.140;-75.616;2023-03-01T04:51:43;100450.66;;;-0.51
74915;BMP280;63475;45.140;-75.616;2023-03-01T04:52:44;100462.38;;;-0.45
74915;BMP280;63475;45.140;-75.616;2023-03-01T04:53:45;100459.78;;;-0.45
74915;BMP280;63475;45.140;-75.616;2023-03-01T04:54:46;100475.69;;;-0.47
74915;BMP280;63475;45.140;-75.616;2023-03-01T04:55:47;100466.38;;;-0.48
74915;BMP280;63475;45.140;-75.616;2023-03-01T04:56:48;100462.97;;;-0.61
74915;BMP280;63475;45.140;-75.616;2023-03-01T04:57:48;100480.47;;;-0.49
74915;BMP280;63475;45.140;-75.616;2023-03-01T04:58:49;100476.66;;;-0.51
74915;BMP280;63475;45.140;-75.616;2023-03-01T04:59:53;100478.81;;;-0.53
74915;BMP280;63475;45.140;-75.616;2023-03-01T05:00:54;100489.34;;;-0.50
74915;BMP280;63475;45.140;-75.616;2023-03-01T05:01:56;100491.19;;;-0.50
74915;BMP280;63475;45.140;-75.616;2023-03-01T05:03:00;100493.78;;;-0.50
74915;BMP280;63475;45.140;-75.616;2023-03-01T05:04:01;100494.09;;;-0.52
74915;BMP280;63475;45.140;-75.616;2023-03-01T05:05:03;100498.56;;;-0.52
74915;BMP280;63475;45.140;-75.616;2023-03-01T05:06:06;100507.44;;;-0.53
74915;BMP280;63475;45.140;-75.616;2023-03-01T05:07:07;100501.03;;;-0.56
74915;BMP280;63475;45.140;-75.616;2023-03-01T05:08:08;100499.50;;;-0.57
74915;BMP280;63475;45.140;-75.616;2023-03-01T05:09:09;100508.06;;;-0.57
74915;BMP280;63475;45.140;-75.616;2023-03-01T05:10:11;100501.34;;;-0.58
74915;BMP280;63475;45.140;-75.616;2023-03-01T05:11:12;100500.69;;;-0.67
74915;BMP280;63475;45.140;-75.616;2023-03-01T05:12:14;100496.03;;;-0.61
74915;BMP280;63475;45.140;-75.616;2023-03-01T05:13:16;100489.75;;;-0.60
74915;BMP280;63475;45.140;-75.616;2023-03-01T05:14:21;100497.88;;;-0.62
74915;BMP280;63475;45.140;-75.616;2023-03-01T05:15:24;100502.44;;;-0.59
74915;BMP280;63475;45.140;-75.616;2023-03-01T05:16:28;100502.31;;;-0.62
74915;BMP280;63475;45.140;-75.616;2023-03-01T05:17:31;100512.72;;;-0.62
74915;BMP280;63475;45.140;-75.616;2023-03-01T05:18:33;100506.53;;;-0.70
74915;BMP280;63475;45.140;-75.616;2023-03-01T05:19:34;100513.03;;;-0.64
74915;BMP280;63475;45.140;-75.616;2023-03-01T05:20:35;100523.75;;;-0.65
74915;BMP280;63475;45.140;-75.616;2023-03-01T05:21:38;100513.25;;;-0.69
74915;BMP280;63475;45.140;-75.616;2023-03-01T05:23:02;100481.91;;;-0.93
74915;BMP280;63475;45.140;-75.616;2023-03-01T05:24:06;100501.41;;;-0.78
74915;BMP280;63475;45.140;-75.616;2023-03-01T05:25:11;100519.97;;;-0.68
74915;BMP280;63475;45.140;-75.616;2023-03-01T05:26:15;100521.03;;;-0.69
74915;BMP280;63475;45.140;-75.616;2023-03-01T05:27:17;100499.13;;;-0.80
74915;BMP280;63475;45.140;-75.616;2023-03-01T05:28:19;100517.25;;;-0.71
74915;BMP280;63475;45.140;-75.616;2023-03-01T05:29:23;100524.16;;;-0.75
74915;BMP280;63475;45.140;-75.616;2023-03-01T05:30:27;100520.47;;;-0.74
74915;BMP280;63475;45.140;-75.616;2023-03-01T05:31:28;100504.38;;;-0.89
74915;BMP280;63475;45.140;-75.616;2023-03-01T05:32:31;100523.53;;;-0.72
74915;BMP280;63475;45.140;-75.616;2023-03-01T05:33:32;100527.19;;;-0.73
74915;BMP280;63475;45.140;-75.616;2023-03-01T05:34:35;100506.84;;;-0.92
74915;BMP280;63475;45.140;-75.616;2023-03-01T05:35:36;100528.78;;;-0.81
74915;BMP280;63475;45.140;-75.616;2023-03-01T05:36:37;100538.25;;;-0.76
74915;BMP280;63475;45.140;-75.616;2023-03-01T05:37:40;100538.25;;;-0.76
74915;BMP280;63475;45.140;-75.616;2023-03-01T05:38:42;100532.28;;;-0.77
74915;BMP280;63475;45.140;-75.616;2023-03-01T05:39:42;100537.03;;;-0.79
74915;BMP280;63475;45.140;-75.616;2023-03-01T05:40:45;100536.72;;;-0.77
74915;BMP280;63475;45.140;-75.616;2023-03-01T05:41:46;100532.63;;;-0.87
74915;BMP280;63475;45.140;-75.616;2023-03-01T05:42:49;100537.03;;;-0.79
74915;BMP280;63475;45.140;-75.616;2023-03-01T05:43:50;100546.69;;;-0.79
74915;BMP280;63475;45.140;-75.616;2023-03-01T05:44:51;100543.31;;;-0.80
74915;BMP280;63475;45.140;-75.616;2023-03-01T05:45:52;100547.75;;;-0.80
74915;BMP280;63475;45.140;-75.616;2023-03-01T05:46:53;100546.22;;;-0.81
74915;BMP280;63475;45.140;-75.616;2023-03-01T05:47:55;100540.44;;;-0.87
74915;BMP280;63475;45.140;-75.616;2023-03-01T05:48:56;100558.00;;;-0.84
74915;BMP280;63475;45.140;-75.616;2023-03-01T05:49:57;100562.13;;;-0.83
74915;BMP280;63475;45.140;-75.616;2023-03-01T05:50:59;100562.13;;;-0.83
74915;BMP280;63475;45.140;-75.616;2023-03-01T05:52:01;100559.53;;;-0.83
74915;BMP280;63475;45.140;-75.616;2023-03-01T05:53:04;100560.91;;;-0.86
74915;BMP280;63475;45.140;-75.616;2023-03-01T05:54:09;100545.06;;;-0.93
74915;BMP280;63475;45.140;-75.616;2023-03-01T05:55:10;100553.13;;;-0.86
74915;BMP280;63475;45.140;-75.616;2023-03-01T05:56:11;100550.28;;;-0.93
74915;BMP280;63475;45.140;-75.616;2023-03-01T05:57:12;100559.41;;;-0.87
74915;BMP280;63475;45.140;-75.616;2023-03-01T05:58:15;100556.88;;;-0.95
74915;BMP280;63475;45.140;-75.616;2023-03-01T05:59:16;100537.34;;;-1.01
74915;BMP280;63475;45.140;-75.616;2023-03-01T06:00:19;100567.50;;;-0.88
74915;BMP280;63475;45.140;-75.616;2023-03-01T06:01:20;100569.69;;;-0.90